LZKZ METAR and TAF | Updated Today

LZKZ METAR

Košice Airport

Observation time: 16 min. ago

LZKZ 200700Z 20008KT CAVOK 18/07 Q1024 NOSIG

Need help? Read our tutorial on how to read METARs or read the parsed version below.

Košice Airport (LZKZ) METAR

  • Weather conditions on Fri, 20 May 2022 07:00:00 +0000 (16 min. ago):
  • Present conditions: Dry
  • Clouds: Clear skies
  • Visibility: Greater than 10 km
  • Wind: 200 degrees at 8 knots
  • Temperature: 18 celsius
  • Dew point: 7 celsius
  • Pressure: 1024 millibars
  • Remarks: None


Useful to know...

LZKZ TAF

Košice Airport

TAF LZKZ 200515Z 2006/2106 VRB02KT CAVOK BECMG 2007/2009 22013KT BECMG 2018/2020 VRB02KT
Observation time: 2:01 hr. ago
Need help? Read our tutorial on how to read TAFs or read the parsed version below.

Parsed version of TAF for Košice Airport (LZKZ)

  • From 20 May at 06:00 UTC, to day 21 of the month at 06:00 UTC
  • Visibility: Greater than 10 km
  • Wind: Variable at 2
  • Expected to arise soon, from 20 May at 07:00 UTC, to day 20 of the month at 09:00 UTC
  • Wind: 220 degrees at 13
  • Expected to arise soon, from 20 May at 18:00 UTC, to day 20 of the month at 20:00 UTC
  • Wind: Variable at 2

Airports near LZKZ

LZPW Weather
Region: Prešov

Prešov Air Base

Not found in our database
UKLU Weather
IATA: UDJ
Region: Uzhhorod

Uzhhorod International Airport

Found in our database